Time;durP1;ratioP1;P1;durP2;ratioP2;P2;SDS_P1;SDS_P2;PMS_P1;PMS_P2;Temp;Humidity;BMP_temperature;BMP_pressure;BME280_temperature;BME280_humidity;BME280_pressure;Samples;Min_cycle;Max_cycle;Signal;HPM_P1;HPM_P2
2023/10/28 00:01:36;;;;;;;3.67;2.00;;;;;;;;;;4996011;28;20575;-80
2023/10/28 00:04:05;;;;;;;3.30;1.90;;;;;;;;;;5011860;28;20175;-80
2023/10/28 00:06:31;;;;;;;4.73;1.93;;;;;;;;;;5004683;28;20188;-80
2023/10/28 00:08:57;;;;;;;2.30;1.70;;;;;;;;;;5006141;28;20270;-79
2023/10/28 00:11:23;;;;;;;1.80;1.60;;;;;;;;;;5008348;28;20259;-80
2023/10/28 00:13:50;;;;;;;3.37;2.00;;;;;;;;;;5013813;28;20198;-79
2023/10/28 00:16:16;;;;;;;3.17;1.93;;;;;;;;;;4975886;28;20188;-80
2023/10/28 00:18:42;;;;;;;3.77;1.93;;;;;;;;;;5009430;28;20273;-80
2023/10/28 00:21:09;;;;;;;2.50;1.60;;;;;;;;;;5018307;28;20195;-79
2023/10/28 00:23:36;;;;;;;2.43;1.60;;;;;;;;;;5011284;28;20230;-80
2023/10/28 00:26:06;;;;;;;4.43;1.60;;;;;;;;;;5004468;28;20184;-80
2023/10/28 00:28:35;;;;;;;2.87;1.73;;;;;;;;;;5005674;28;20273;-80
2023/10/28 00:31:03;;;;;;;2.10;1.50;;;;;;;;;;5006876;28;20254;-79
2023/10/28 00:33:29;;;;;;;1.73;1.37;;;;;;;;;;5001272;28;20263;-79
2023/10/28 00:35:55;;;;;;;1.90;1.20;;;;;;;;;;5007357;28;20194;-79
2023/10/28 00:38:22;;;;;;;2.60;1.40;;;;;;;;;;5006503;28;20674;-79
2023/10/28 00:40:49;;;;;;;2.13;1.30;;;;;;;;;;5026742;28;20606;-80
2023/10/28 00:43:15;;;;;;;1.70;1.50;;;;;;;;;;5015115;28;20171;-79
2023/10/28 00:45:41;;;;;;;2.17;1.40;;;;;;;;;;4996053;28;20596;-79
2023/10/28 00:48:08;;;;;;;2.73;1.30;;;;;;;;;;5010290;28;20198;-79
2023/10/28 00:50:34;;;;;;;2.80;1.53;;;;;;;;;;5000642;28;20791;-79
2023/10/28 00:53:02;;;;;;;1.70;1.53;;;;;;;;;;5007075;28;20700;-80
2023/10/28 00:55:30;;;;;;;1.90;1.50;;;;;;;;;;5014578;28;20245;-79
2023/10/28 00:57:57;;;;;;;1.83;1.40;;;;;;;;;;5006293;28;20431;-79
2023/10/28 01:00:23;;;;;;;1.80;1.63;;;;;;;;;;5007417;28;20207;-79
2023/10/28 01:02:51;;;;;;;2.10;1.70;;;;;;;;;;5009114;28;20186;-80
2023/10/28 01:05:17;;;;;;;2.30;1.50;;;;;;;;;;5010885;28;20187;-79
2023/10/28 01:07:48;;;;;;;2.03;1.70;;;;;;;;;;5007250;28;20184;-79
2023/10/28 01:10:30;;;;;;;1.40;1.30;;;;;;;;;;5013137;28;20246;-79
2023/10/28 01:12:58;;;;;;;2.83;1.50;;;;;;;;;;4987526;28;20199;-79
2023/10/28 01:15:25;;;;;;;1.70;1.50;;;;;;;;;;5003769;28;20180;-79
2023/10/28 01:17:51;;;;;;;2.90;1.83;;;;;;;;;;5002821;28;20679;-79
2023/10/28 01:20:17;;;;;;;1.93;1.30;;;;;;;;;;5010968;28;20219;-78
2023/10/28 01:22:43;;;;;;;2.07;1.70;;;;;;;;;;5003293;28;20205;-78
2023/10/28 01:25:10;;;;;;;2.40;1.40;;;;;;;;;;5007669;28;20187;-78
2023/10/28 01:27:36;;;;;;;1.43;1.33;;;;;;;;;;5006093;28;20579;-77
2023/10/28 01:30:03;;;;;;;1.97;1.60;;;;;;;;;;5005975;28;20211;-78
2023/10/28 01:32:29;;;;;;;2.90;1.70;;;;;;;;;;5009798;28;20183;-79
2023/10/28 01:34:55;;;;;;;1.90;1.30;;;;;;;;;;5009345;28;20206;-77
2023/10/28 01:37:21;;;;;;;1.60;1.30;;;;;;;;;;5011107;28;20426;-78
2023/10/28 01:39:50;;;;;;;1.47;1.30;;;;;;;;;;5009976;28;20213;-78
2023/10/28 01:42:16;;;;;;;2.80;1.20;;;;;;;;;;5012439;28;20237;-78
2023/10/28 01:44:43;;;;;;;2.03;1.00;;;;;;;;;;5009909;28;20179;-77
2023/10/28 01:47:09;;;;;;;2.60;1.20;;;;;;;;;;4995669;28;20195;-78
2023/10/28 01:49:36;;;;;;;1.20;0.90;;;;;;;;;;4999106;28;20274;-77
2023/10/28 01:52:03;;;;;;;2.03;1.00;;;;;;;;;;5001463;28;20243;-78
2023/10/28 01:54:30;;;;;;;1.43;1.00;;;;;;;;;;5001767;28;20274;-78
2023/10/28 01:57:00;;;;;;;1.97;1.10;;;;;;;;;;4989098;28;20195;-78
2023/10/28 01:59:26;;;;;;;1.93;1.30;;;;;;;;;;5005543;28;20726;-78
2023/10/28 02:01:53;;;;;;;1.20;1.10;;;;;;;;;;4985815;28;20200;-78
2023/10/28 02:04:19;;;;;;;2.50;1.20;;;;;;;;;;5005599;28;20186;-78
2023/10/28 02:06:45;;;;;;;3.13;1.40;;;;;;;;;;5011243;28;20214;-78
2023/10/28 02:09:13;;;;;;;1.63;1.10;;;;;;;;;;5006092;28;20203;-78
2023/10/28 02:11:39;;;;;;;2.43;1.40;;;;;;;;;;5010994;28;20193;-78
2023/10/28 02:14:09;;;;;;;6.17;3.43;;;;;;;;;;4985483;28;20187;-78
2023/10/28 02:16:38;;;;;;;4.53;1.97;;;;;;;;;;5009625;28;20191;-78
2023/10/28 02:19:05;;;;;;;3.23;1.70;;;;;;;;;;4991188;28;20215;-78
2023/10/28 02:21:31;;;;;;;3.70;1.00;;;;;;;;;;5008002;28;20187;-78
2023/10/28 02:23:58;;;;;;;1.23;0.90;;;;;;;;;;5001063;28;20241;-78
2023/10/28 02:26:24;;;;;;;1.07;0.80;;;;;;;;;;5019201;28;20171;-77
2023/10/28 02:28:50;;;;;;;1.07;0.97;;;;;;;;;;5012721;28;20194;-77
2023/10/28 02:31:16;;;;;;;1.00;0.80;;;;;;;;;;5013210;28;20187;-77
2023/10/28 02:33:42;;;;;;;1.40;1.00;;;;;;;;;;5025004;28;20189;-78
2023/10/28 02:36:09;;;;;;;1.27;1.00;;;;;;;;;;5004031;28;20186;-78
2023/10/28 02:38:35;;;;;;;2.10;1.10;;;;;;;;;;5018607;28;20210;-77
2023/10/28 02:41:02;;;;;;;1.00;0.90;;;;;;;;;;5012104;28;20214;-77
2023/10/28 02:43:28;;;;;;;1.70;1.20;;;;;;;;;;5002015;28;20191;-77
2023/10/28 02:45:54;;;;;;;2.70;1.40;;;;;;;;;;5013299;28;20245;-77
2023/10/28 02:48:20;;;;;;;2.10;1.30;;;;;;;;;;5014685;28;20191;-78
2023/10/28 02:50:46;;;;;;;2.50;1.50;;;;;;;;;;5011146;28;20261;-77
2023/10/28 02:53:13;;;;;;;2.37;1.40;;;;;;;;;;5006189;28;20203;-79
2023/10/28 02:55:40;;;;;;;1.23;1.10;;;;;;;;;;5014412;28;20183;-78
2023/10/28 02:58:06;;;;;;;3.13;1.10;;;;;;;;;;5019847;28;20625;-78
2023/10/28 03:00:32;;;;;;;1.40;0.90;;;;;;;;;;4999689;28;20233;-78
2023/10/28 03:02:59;;;;;;;1.50;1.20;;;;;;;;;;5012095;28;20176;-78
2023/10/28 03:05:25;;;;;;;1.13;1.00;;;;;;;;;;5020817;28;20182;-78
2023/10/28 03:07:51;;;;;;;1.87;1.13;;;;;;;;;;4993321;28;20217;-78
2023/10/28 03:10:18;;;;;;;3.63;1.20;;;;;;;;;;5001817;28;20277;-78
2023/10/28 03:12:44;;;;;;;1.93;1.20;;;;;;;;;;5015605;28;20287;-78
2023/10/28 03:15:10;;;;;;;1.97;1.20;;;;;;;;;;5014402;28;20250;-78
2023/10/28 03:17:37;;;;;;;3.00;1.37;;;;;;;;;;5014095;28;20250;-77
2023/10/28 03:20:04;;;;;;;1.27;1.13;;;;;;;;;;5016570;28;20195;-78
2023/10/28 03:22:30;;;;;;;3.13;1.00;;;;;;;;;;5018555;28;20183;-78
2023/10/28 03:24:56;;;;;;;1.27;1.17;;;;;;;;;;5012584;28;20328;-78
2023/10/28 03:27:22;;;;;;;2.30;1.30;;;;;;;;;;5014321;28;20673;-78
2023/10/28 03:29:50;;;;;;;3.77;1.37;;;;;;;;;;5011498;28;20706;-78
2023/10/28 03:32:16;;;;;;;2.13;1.03;;;;;;;;;;4999579;28;20175;-78
2023/10/28 03:34:42;;;;;;;3.43;1.40;;;;;;;;;;5015267;28;20210;-78
2023/10/28 03:37:09;;;;;;;3.37;1.80;;;;;;;;;;4999753;28;20183;-77
2023/10/28 03:39:35;;;;;;;3.17;1.50;;;;;;;;;;5016866;28;20717;-78
2023/10/28 03:42:01;;;;;;;2.60;1.47;;;;;;;;;;5013970;28;20306;-78
2023/10/28 03:44:27;;;;;;;4.03;1.93;;;;;;;;;;5014408;28;20239;-77
2023/10/28 03:46:53;;;;;;;2.93;1.57;;;;;;;;;;5013728;28;20681;-78
2023/10/28 03:49:19;;;;;;;3.30;1.70;;;;;;;;;;5012739;28;20306;-78
2023/10/28 03:51:46;;;;;;;2.37;1.50;;;;;;;;;;5015568;28;21747;-77
2023/10/28 03:54:13;;;;;;;3.30;1.60;;;;;;;;;;5007134;28;20657;-78
2023/10/28 03:56:39;;;;;;;4.33;1.73;;;;;;;;;;5003130;28;20191;-78
2023/10/28 03:59:05;;;;;;;3.47;1.40;;;;;;;;;;5002096;28;20204;-78
2023/10/28 04:01:31;;;;;;;4.13;1.60;;;;;;;;;;4994168;28;20218;-77
2023/10/28 04:03:57;;;;;;;3.73;1.97;;;;;;;;;;5015071;28;20325;-78
2023/10/28 04:06:25;;;;;;;2.57;1.60;;;;;;;;;;5014984;28;20182;-78
2023/10/28 04:08:51;;;;;;;3.73;1.87;;;;;;;;;;5013301;28;20261;-78
2023/10/28 04:11:17;;;;;;;3.73;1.87;;;;;;;;;;5014544;28;20234;-78
2023/10/28 04:13:43;;;;;;;4.20;1.57;;;;;;;;;;5012078;28;20222;-79
2023/10/28 04:16:09;;;;;;;6.77;1.90;;;;;;;;;;5007523;28;20249;-78
2023/10/28 04:18:35;;;;;;;5.17;1.70;;;;;;;;;;5010454;28;20216;-78
2023/10/28 04:21:02;;;;;;;5.13;1.60;;;;;;;;;;5006878;28;20221;-78
2023/10/28 04:23:28;;;;;;;4.70;2.13;;;;;;;;;;5013990;28;20183;-78
2023/10/28 04:25:54;;;;;;;3.97;2.00;;;;;;;;;;5005438;28;20688;-78
2023/10/28 04:28:20;;;;;;;4.50;1.87;;;;;;;;;;5012905;28;20183;-77
2023/10/28 04:30:59;;;;;;;3.83;1.70;;;;;;;;;;5006476;28;20202;-77
2023/10/28 04:33:26;;;;;;;4.07;2.00;;;;;;;;;;5011121;28;20263;-77
2023/10/28 04:35:53;;;;;;;5.03;2.10;;;;;;;;;;5009320;28;20187;-77
2023/10/28 04:38:22;;;;;;;2.87;1.80;;;;;;;;;;4998295;28;20209;-79
2023/10/28 04:40:51;;;;;;;5.07;2.10;;;;;;;;;;5005503;28;20304;-77
2023/10/28 04:43:19;;;;;;;5.87;1.80;;;;;;;;;;5016374;28;20559;-77
2023/10/28 04:45:46;;;;;;;3.83;1.50;;;;;;;;;;5014917;28;20191;-77
2023/10/28 04:48:15;;;;;;;3.17;1.70;;;;;;;;;;5005771;28;20745;-78
2023/10/28 04:50:42;;;;;;;5.30;1.70;;;;;;;;;;5010782;28;20210;-79
2023/10/28 04:53:08;;;;;;;4.37;1.63;;;;;;;;;;4999293;28;20182;-77
2023/10/28 04:55:34;;;;;;;3.37;1.50;;;;;;;;;;5010877;28;20249;-78
2023/10/28 04:58:02;;;;;;;2.77;1.57;;;;;;;;;;4987500;28;20207;-77
2023/10/28 05:00:28;;;;;;;6.63;1.70;;;;;;;;;;5010375;28;20203;-81
2023/10/28 05:02:54;;;;;;;3.17;1.57;;;;;;;;;;5010016;28;20222;-77
2023/10/28 05:05:21;;;;;;;4.47;1.50;;;;;;;;;;5005831;28;20632;-77
2023/10/28 05:07:48;;;;;;;3.40;1.50;;;;;;;;;;5009164;28;20238;-78
2023/10/28 05:10:15;;;;;;;4.47;1.67;;;;;;;;;;5006676;28;20214;-77
2023/10/28 05:12:41;;;;;;;4.30;1.70;;;;;;;;;;5009974;28;20199;-78
2023/10/28 05:15:08;;;;;;;3.50;1.47;;;;;;;;;;5006682;28;20322;-77
2023/10/28 05:17:38;;;;;;;3.93;2.07;;;;;;;;;;5009384;28;20182;-77
2023/10/28 05:20:08;;;;;;;3.43;1.50;;;;;;;;;;5004935;28;20310;-78
2023/10/28 05:22:35;;;;;;;3.90;1.47;;;;;;;;;;5011179;28;20222;-80
2023/10/28 05:25:03;;;;;;;5.90;1.77;;;;;;;;;;5008865;28;20240;-78
2023/10/28 05:27:30;;;;;;;3.60;1.50;;;;;;;;;;5011250;28;20183;-77
2023/10/28 05:29:56;;;;;;;5.23;1.73;;;;;;;;;;5011351;28;20206;-77
2023/10/28 05:32:22;;;;;;;5.07;1.47;;;;;;;;;;5011811;28;20609;-81
2023/10/28 05:34:48;;;;;;;3.57;1.70;;;;;;;;;;5010092;28;20190;-78
2023/10/28 05:37:14;;;;;;;3.17;1.40;;;;;;;;;;5022792;28;20266;-80
2023/10/28 05:39:40;;;;;;;4.27;1.50;;;;;;;;;;5006935;28;20310;-79
2023/10/28 05:42:07;;;;;;;4.63;1.80;;;;;;;;;;5006579;28;20180;-77
2023/10/28 05:44:35;;;;;;;4.70;1.60;;;;;;;;;;5009892;28;20179;-77
2023/10/28 05:47:01;;;;;;;5.30;2.50;;;;;;;;;;5008125;28;20183;-77
2023/10/28 05:49:27;;;;;;;4.13;1.70;;;;;;;;;;5005546;28;20626;-77
2023/10/28 05:51:54;;;;;;;3.37;1.67;;;;;;;;;;5009219;28;20194;-77
2023/10/28 05:54:20;;;;;;;5.20;1.60;;;;;;;;;;4991178;28;20210;-77
2023/10/28 05:56:47;;;;;;;5.63;1.63;;;;;;;;;;5007703;28;20183;-78
2023/10/28 05:59:14;;;;;;;5.00;1.70;;;;;;;;;;4987981;28;20378;-78
2023/10/28 06:01:40;;;;;;;4.67;1.60;;;;;;;;;;5007358;28;21110;-78
2023/10/28 06:04:07;;;;;;;2.97;1.70;;;;;;;;;;5005214;28;20576;-79
2023/10/28 06:06:33;;;;;;;4.97;1.90;;;;;;;;;;5007456;28;20664;-78
2023/10/28 06:09:00;;;;;;;5.83;2.00;;;;;;;;;;5008916;28;20247;-78
2023/10/28 06:11:26;;;;;;;5.77;1.83;;;;;;;;;;5007285;28;20195;-78
2023/10/28 06:13:53;;;;;;;3.43;1.60;;;;;;;;;;5002063;28;20217;-79
2023/10/28 06:16:20;;;;;;;4.60;1.57;;;;;;;;;;5005558;28;20187;-78
2023/10/28 06:18:46;;;;;;;4.70;1.60;;;;;;;;;;5002745;28;20207;-79
2023/10/28 06:21:14;;;;;;;7.33;1.70;;;;;;;;;;5008748;28;20191;-78
2023/10/28 06:23:40;;;;;;;5.40;1.70;;;;;;;;;;5003727;28;20192;-78
2023/10/28 06:26:10;;;;;;;5.83;1.73;;;;;;;;;;5008248;28;20733;-77
2023/10/28 06:28:37;;;;;;;4.20;1.63;;;;;;;;;;5009317;28;20269;-76
2023/10/28 06:31:03;;;;;;;5.63;1.70;;;;;;;;;;5008381;28;20219;-79
2023/10/28 06:33:29;;;;;;;6.60;1.60;;;;;;;;;;4999841;28;20278;-78
2023/10/28 06:35:55;;;;;;;3.53;1.67;;;;;;;;;;5007876;28;20191;-80
2023/10/28 06:38:25;;;;;;;4.93;1.90;;;;;;;;;;5004393;28;20257;-78
2023/10/28 06:40:51;;;;;;;4.83;1.90;;;;;;;;;;5006498;28;20207;-78
2023/10/28 06:43:22;;;;;;;5.97;1.70;;;;;;;;;;5002840;28;20238;-79
2023/10/28 06:45:49;;;;;;;4.13;1.70;;;;;;;;;;5008630;28;20596;-77
2023/10/28 06:48:15;;;;;;;4.93;1.70;;;;;;;;;;5000185;28;20287;-79
2023/10/28 06:50:41;;;;;;;5.67;1.70;;;;;;;;;;5006490;28;20289;-78
2023/10/28 06:53:11;;;;;;;5.80;2.07;;;;;;;;;;4989767;28;20191;-79
2023/10/28 06:55:37;;;;;;;3.07;1.43;;;;;;;;;;5010360;28;20274;-78
2023/10/28 06:58:03;;;;;;;5.10;2.00;;;;;;;;;;5008131;28;20700;-77
2023/10/28 07:00:29;;;;;;;3.83;1.80;;;;;;;;;;5003862;28;20211;-78
2023/10/28 07:02:56;;;;;;;3.80;1.70;;;;;;;;;;5007280;28;20184;-79
2023/10/28 07:05:26;;;;;;;4.43;1.60;;;;;;;;;;5006153;28;20183;-77
2023/10/28 07:07:54;;;;;;;4.13;1.70;;;;;;;;;;5008154;28;20188;-78
2023/10/28 07:10:20;;;;;;;4.53;1.90;;;;;;;;;;5002881;28;20781;-80
2023/10/28 07:12:46;;;;;;;4.00;1.87;;;;;;;;;;5004193;28;20184;-78
2023/10/28 07:15:12;;;;;;;4.07;1.83;;;;;;;;;;4990385;28;20191;-78
2023/10/28 07:17:39;;;;;;;3.70;1.60;;;;;;;;;;5004408;28;20207;-78
2023/10/28 07:20:07;;;;;;;3.77;1.73;;;;;;;;;;5009404;28;20196;-77
2023/10/28 07:22:34;;;;;;;4.50;1.80;;;;;;;;;;5005628;28;20707;-78
2023/10/28 07:25:00;;;;;;;5.43;1.57;;;;;;;;;;4992898;28;20516;-77
2023/10/28 07:27:27;;;;;;;5.17;1.77;;;;;;;;;;5003391;28;20180;-78
2023/10/28 07:29:53;;;;;;;3.10;1.50;;;;;;;;;;5005538;28;20211;-78
2023/10/28 07:32:19;;;;;;;4.60;1.63;;;;;;;;;;5005021;28;20597;-78
2023/10/28 07:34:45;;;;;;;3.80;1.63;;;;;;;;;;5001100;28;20199;-78
2023/10/28 07:37:13;;;;;;;3.27;1.70;;;;;;;;;;5008455;28;20652;-78
2023/10/28 07:39:41;;;;;;;4.83;1.90;;;;;;;;;;5006743;28;20215;-78
2023/10/28 07:42:07;;;;;;;3.23;1.60;;;;;;;;;;5004637;28;20184;-78
2023/10/28 07:44:33;;;;;;;3.10;1.70;;;;;;;;;;5010834;28;20183;-78
2023/10/28 07:47:00;;;;;;;4.13;1.53;;;;;;;;;;5012325;28;20192;-78
2023/10/28 07:49:27;;;;;;;4.97;1.60;;;;;;;;;;5008559;28;20265;-80
2023/10/28 07:51:54;;;;;;;4.33;1.70;;;;;;;;;;5007720;28;20646;-74
2023/10/28 07:54:20;;;;;;;3.63;1.60;;;;;;;;;;5007242;28;20225;-79
2023/10/28 07:56:46;;;;;;;3.13;1.47;;;;;;;;;;4993961;28;20221;-77
2023/10/28 07:59:13;;;;;;;3.20;1.60;;;;;;;;;;5006332;28;20215;-77
2023/10/28 08:01:42;;;;;;;4.70;3.00;;;;;;;;;;5011249;28;20194;-81
2023/10/28 08:04:08;;;;;;;5.13;1.90;;;;;;;;;;5007228;28;20259;-78
2023/10/28 08:06:34;;;;;;;4.33;1.70;;;;;;;;;;5009991;28;20294;-79
2023/10/28 08:09:01;;;;;;;5.77;1.70;;;;;;;;;;5011959;28;20187;-77
2023/10/28 08:11:29;;;;;;;3.87;1.77;;;;;;;;;;5010918;28;20279;-78
2023/10/28 08:13:56;;;;;;;2.90;1.30;;;;;;;;;;5005942;28;20541;-76
2023/10/28 08:16:23;;;;;;;6.20;1.63;;;;;;;;;;5008760;28;20184;-78
2023/10/28 08:18:49;;;;;;;5.37;1.70;;;;;;;;;;5009374;28;20215;-77
2023/10/28 08:21:19;;;;;;;3.93;1.77;;;;;;;;;;5009138;28;20322;-76
2023/10/28 08:23:45;;;;;;;3.80;1.40;;;;;;;;;;5009344;28;20187;-77
2023/10/28 08:26:12;;;;;;;3.73;1.50;;;;;;;;;;5011406;28;20190;-78
2023/10/28 08:28:39;;;;;;;4.80;1.47;;;;;;;;;;5010980;28;20187;-76
2023/10/28 08:31:11;;;;;;;3.40;1.60;;;;;;;;;;5008801;28;20215;-77
2023/10/28 08:33:41;;;;;;;3.37;1.40;;;;;;;;;;5010831;28;20681;-77
2023/10/28 08:36:08;;;;;;;5.30;1.50;;;;;;;;;;5009493;28;20200;-77
2023/10/28 08:38:34;;;;;;;2.90;1.40;;;;;;;;;;5010151;28;20215;-76
2023/10/28 08:41:01;;;;;;;5.20;1.90;;;;;;;;;;5010998;28;20203;-76
2023/10/28 08:43:27;;;;;;;3.57;1.70;;;;;;;;;;5009964;28;20188;-76
2023/10/28 08:45:57;;;;;;;6.13;1.97;;;;;;;;;;5010559;28;20683;-78
2023/10/28 08:48:23;;;;;;;4.17;1.50;;;;;;;;;;5005093;28;20190;-76
2023/10/28 08:50:51;;;;;;;3.80;1.40;;;;;;;;;;5010165;28;20222;-77
2023/10/28 08:53:18;;;;;;;6.20;1.80;;;;;;;;;;5009788;28;20234;-76
2023/10/28 08:55:45;;;;;;;4.33;1.53;;;;;;;;;;5007937;28;20191;-76
2023/10/28 08:58:12;;;;;;;5.03;1.60;;;;;;;;;;5009831;28;20206;-77
2023/10/28 09:00:39;;;;;;;3.73;1.50;;;;;;;;;;5009960;28;20230;-78
2023/10/28 09:03:05;;;;;;;3.40;1.50;;;;;;;;;;5002969;28;20184;-76
2023/10/28 09:05:31;;;;;;;5.13;1.80;;;;;;;;;;5004396;28;20187;-76
2023/10/28 09:07:57;;;;;;;7.03;1.60;;;;;;;;;;5009844;28;20187;-77
2023/10/28 09:10:24;;;;;;;4.17;1.80;;;;;;;;;;5009864;28;20218;-77
2023/10/28 09:12:51;;;;;;;2.97;1.60;;;;;;;;;;5009125;28;20195;-78
2023/10/28 09:15:18;;;;;;;6.33;1.70;;;;;;;;;;5008147;28;20183;-76
2023/10/28 09:17:44;;;;;;;5.53;2.03;;;;;;;;;;5009020;28;20198;-76
2023/10/28 09:20:11;;;;;;;3.70;1.70;;;;;;;;;;5009906;28;20277;-77
2023/10/28 09:22:42;;;;;;;4.93;1.70;;;;;;;;;;5010055;28;20246;-76
2023/10/28 09:25:14;;;;;;;4.13;1.50;;;;;;;;;;5007111;28;20193;-77
2023/10/28 09:27:40;;;;;;;6.67;1.83;;;;;;;;;;5002513;28;20180;-76
2023/10/28 09:30:08;;;;;;;4.00;1.67;;;;;;;;;;4999533;28;20248;-77
2023/10/28 09:32:34;;;;;;;3.40;1.53;;;;;;;;;;5002127;28;20187;-77
2023/10/28 09:35:07;;;;;;;3.23;1.60;;;;;;;;;;5005761;28;20183;-80
2023/10/28 09:37:41;;;;;;;3.60;1.50;;;;;;;;;;4997131;28;20194;-79
2023/10/28 09:40:08;;;;;;;3.50;1.77;;;;;;;;;;5006832;28;20726;-78
2023/10/28 09:42:35;;;;;;;5.13;1.97;;;;;;;;;;5004657;28;20183;-78
2023/10/28 09:45:05;;;;;;;6.60;1.83;;;;;;;;;;5000847;28;20736;-78
2023/10/28 09:47:56;;;;;;;3.63;1.90;;;;;;;;;;5000621;28;20203;-78
2023/10/28 09:50:22;;;;;;;6.70;2.10;;;;;;;;;;5004714;28;20211;-78
2023/10/28 09:52:52;;;;;;;5.33;2.00;;;;;;;;;;5003486;28;20195;-78
2023/10/28 09:55:21;;;;;;;3.23;1.70;;;;;;;;;;5005393;28;20187;-78
2023/10/28 09:57:48;;;;;;;6.07;1.60;;;;;;;;;;5001573;28;20267;-79
2023/10/28 10:00:17;;;;;;;4.00;1.80;;;;;;;;;;5002916;28;20211;-79
2023/10/28 10:03:16;;;;;;;4.07;1.73;;;;;;;;;;4997962;28;20556;-78
2023/10/28 10:05:44;;;;;;;5.83;1.70;;;;;;;;;;4970114;28;20192;-80
2023/10/28 10:08:19;;;;;;;5.17;1.67;;;;;;;;;;5004467;28;20656;-78
2023/10/28 10:10:45;;;;;;;5.07;1.77;;;;;;;;;;5001660;28;20219;-78
2023/10/28 10:13:12;;;;;;;3.17;1.63;;;;;;;;;;5000764;28;20234;-78
2023/10/28 10:15:42;;;;;;;5.27;1.63;;;;;;;;;;5000682;28;20195;-78
2023/10/28 10:18:12;;;;;;;6.90;2.00;;;;;;;;;;5013526;28;20217;-78
2023/10/28 10:20:44;;;;;;;3.07;1.57;;;;;;;;;;5002683;28;20267;-78
2023/10/28 10:23:10;;;;;;;4.57;1.60;;;;;;;;;;5000634;28;20184;-78
2023/10/28 10:25:39;;;;;;;4.47;1.50;;;;;;;;;;4998329;28;20187;-79
2023/10/28 10:28:06;;;;;;;6.17;1.93;;;;;;;;;;5003579;28;20183;-78
2023/10/28 10:30:35;;;;;;;5.63;1.90;;;;;;;;;;5007074;28;20211;-79
2023/10/28 10:33:03;;;;;;;4.37;1.90;;;;;;;;;;5000705;28;20190;-78
2023/10/28 10:35:33;;;;;;;5.07;1.80;;;;;;;;;;5008335;28;20278;-78
2023/10/28 10:38:09;;;;;;;4.37;1.50;;;;;;;;;;5004655;28;20210;-78
2023/10/28 10:40:58;;;;;;;4.00;1.60;;;;;;;;;;5004536;28;20207;-78
2023/10/28 10:43:29;;;;;;;3.40;1.50;;;;;;;;;;5004549;28;20223;-78
2023/10/28 10:45:55;;;;;;;3.60;1.70;;;;;;;;;;5001986;28;20187;-78
2023/10/28 10:48:21;;;;;;;5.17;2.10;;;;;;;;;;5000347;28;20569;-80
2023/10/28 10:50:48;;;;;;;4.80;1.80;;;;;;;;;;5006080;28;20211;-78
2023/10/28 10:53:14;;;;;;;4.77;1.93;;;;;;;;;;5005868;28;20307;-78
2023/10/28 10:55:41;;;;;;;5.97;1.90;;;;;;;;;;5004716;28;20187;-78
2023/10/28 10:58:07;;;;;;;5.27;1.80;;;;;;;;;;5006833;28;20211;-78
2023/10/28 11:00:33;;;;;;;5.77;2.07;;;;;;;;;;5003896;28;20294;-81
2023/10/28 11:03:02;;;;;;;5.33;1.87;;;;;;;;;;5009899;28;20203;-78
2023/10/28 11:05:30;;;;;;;3.73;1.70;;;;;;;;;;5010215;28;20527;-78
2023/10/28 11:07:56;;;;;;;5.47;1.90;;;;;;;;;;5009161;28;20186;-78
2023/10/28 11:10:23;;;;;;;5.67;2.17;;;;;;;;;;5006039;28;20207;-78
2023/10/28 11:12:50;;;;;;;7.80;2.20;;;;;;;;;;5011839;28;20337;-79
2023/10/28 11:15:16;;;;;;;6.40;2.00;;;;;;;;;;5026716;28;20268;-78
2023/10/28 11:17:43;;;;;;;6.33;1.87;;;;;;;;;;5011435;28;20175;-78
2023/10/28 11:20:10;;;;;;;5.60;1.80;;;;;;;;;;4995108;28;20269;-80
2023/10/28 11:22:37;;;;;;;5.93;2.00;;;;;;;;;;5008717;28;20229;-79
2023/10/28 11:25:04;;;;;;;4.93;1.80;;;;;;;;;;5012371;28;20191;-79
2023/10/28 11:27:31;;;;;;;6.10;1.90;;;;;;;;;;5011707;28;20187;-78
2023/10/28 11:29:57;;;;;;;4.33;1.80;;;;;;;;;;5011965;28;20199;-79
2023/10/28 11:32:23;;;;;;;15.57;6.50;;;;;;;;;;5010929;28;20187;-79
2023/10/28 11:34:53;;;;;;;8.07;2.87;;;;;;;;;;5011337;28;20660;-75
2023/10/28 11:37:22;;;;;;;5.23;1.93;;;;;;;;;;5010414;28;20380;-76
2023/10/28 11:39:49;;;;;;;4.63;1.90;;;;;;;;;;5010418;28;20222;-75
2023/10/28 11:42:16;;;;;;;5.73;2.20;;;;;;;;;;5009648;28;20193;-79
2023/10/28 11:44:47;;;;;;;4.67;1.87;;;;;;;;;;5010417;28;20288;-76
2023/10/28 11:47:14;;;;;;;5.77;2.13;;;;;;;;;;5009193;28;20176;-77
2023/10/28 11:49:40;;;;;;;5.67;1.90;;;;;;;;;;5011027;28;20232;-76
2023/10/28 11:52:06;;;;;;;7.73;1.93;;;;;;;;;;5009836;28;20270;-76
2023/10/28 11:54:33;;;;;;;4.30;1.83;;;;;;;;;;5010848;28;20290;-78
2023/10/28 11:56:59;;;;;;;6.70;2.13;;;;;;;;;;5007097;28;20179;-76
2023/10/28 11:59:26;;;;;;;5.50;2.20;;;;;;;;;;5008450;28;20219;-74
2023/10/28 12:01:53;;;;;;;5.77;2.50;;;;;;;;;;5008781;28;20210;-75
2023/10/28 12:04:23;;;;;;;5.07;2.07;;;;;;;;;;5007417;28;20186;-74
2023/10/28 12:06:49;;;;;;;7.40;2.03;;;;;;;;;;5011785;28;20252;-74
2023/10/28 12:09:15;;;;;;;5.13;2.23;;;;;;;;;;5009247;28;20211;-73
2023/10/28 12:11:42;;;;;;;7.17;2.30;;;;;;;;;;5009896;28;20186;-73
2023/10/28 12:14:08;;;;;;;7.23;2.33;;;;;;;;;;5009145;28;20754;-73
2023/10/28 12:16:37;;;;;;;6.13;2.00;;;;;;;;;;5008936;28;20198;-73
2023/10/28 12:19:05;;;;;;;4.57;2.17;;;;;;;;;;5009133;28;20207;-72
2023/10/28 12:21:32;;;;;;;6.40;2.83;;;;;;;;;;5011417;28;20185;-72
2023/10/28 12:23:58;;;;;;;6.23;2.20;;;;;;;;;;5009477;28;20185;-73
2023/10/28 12:26:25;;;;;;;7.07;2.37;;;;;;;;;;5011623;28;20329;-74
2023/10/28 12:28:52;;;;;;;5.20;2.40;;;;;;;;;;5009025;28;20201;-72
2023/10/28 12:31:25;;;;;;;6.63;2.27;;;;;;;;;;5009838;28;20283;-72
2023/10/28 12:33:54;;;;;;;10.43;4.57;;;;;;;;;;5009347;28;20179;-75
2023/10/28 12:36:20;;;;;;;7.23;2.40;;;;;;;;;;5009831;28;20705;-74
2023/10/28 12:38:46;;;;;;;8.57;2.83;;;;;;;;;;5009921;28;20211;-74
2023/10/28 12:41:13;;;;;;;6.13;2.50;;;;;;;;;;5025178;28;20304;-74
2023/10/28 12:43:39;;;;;;;5.60;2.70;;;;;;;;;;5009820;28;20181;-74
2023/10/28 12:46:06;;;;;;;6.47;2.33;;;;;;;;;;5009337;28;20182;-74
2023/10/28 12:48:35;;;;;;;8.30;2.37;;;;;;;;;;5007610;28;20199;-74
2023/10/28 12:51:01;;;;;;;6.10;2.50;;;;;;;;;;5009188;28;20294;-75
2023/10/28 12:53:29;;;;;;;6.43;2.00;;;;;;;;;;5009032;28;20421;-75
2023/10/28 12:55:56;;;;;;;9.43;2.00;;;;;;;;;;5009929;28;20216;-74
2023/10/28 12:58:22;;;;;;;5.47;1.93;;;;;;;;;;5009181;28;20557;-74
2023/10/28 13:00:49;;;;;;;4.67;1.80;;;;;;;;;;5009107;28;20206;-77
2023/10/28 13:03:15;;;;;;;7.10;2.17;;;;;;;;;;5008889;28;20681;-76
2023/10/28 13:05:42;;;;;;;5.20;2.57;;;;;;;;;;5009891;28;20591;-74
2023/10/28 13:08:09;;;;;;;5.83;2.60;;;;;;;;;;5007789;28;20209;-74
2023/10/28 13:10:36;;;;;;;5.20;2.53;;;;;;;;;;5008381;28;20198;-74
2023/10/28 13:13:03;;;;;;;6.47;2.43;;;;;;;;;;5007368;28;20186;-74
2023/10/28 13:15:29;;;;;;;7.00;2.63;;;;;;;;;;5007417;28;20210;-73
2023/10/28 13:17:56;;;;;;;4.43;2.50;;;;;;;;;;5008885;28;20182;-73
2023/10/28 13:20:22;;;;;;;6.33;2.70;;;;;;;;;;5007216;28;20563;-75
2023/10/28 13:22:48;;;;;;;7.77;2.87;;;;;;;;;;5009348;28;20226;-74
2023/10/28 13:25:14;;;;;;;6.17;2.60;;;;;;;;;;5008143;28;20202;-74
2023/10/28 13:27:41;;;;;;;7.00;2.40;;;;;;;;;;5006973;28;20666;-74
2023/10/28 13:30:07;;;;;;;7.27;2.40;;;;;;;;;;5008267;28;20734;-74
2023/10/28 13:32:35;;;;;;;9.00;2.30;;;;;;;;;;5006069;28;20591;-75
2023/10/28 13:35:02;;;;;;;6.40;2.30;;;;;;;;;;5006707;28;20184;-75
2023/10/28 13:37:28;;;;;;;5.80;2.20;;;;;;;;;;5009178;28;20567;-75
2023/10/28 13:39:54;;;;;;;6.33;2.40;;;;;;;;;;5008129;28;20225;-75
2023/10/28 13:42:20;;;;;;;7.77;2.63;;;;;;;;;;5007474;28;20682;-74
2023/10/28 13:44:47;;;;;;;5.00;2.40;;;;;;;;;;5008215;28;20187;-75
2023/10/28 13:47:13;;;;;;;6.17;2.00;;;;;;;;;;5008058;28;20519;-75
2023/10/28 13:49:42;;;;;;;45.93;26.27;;;;;;;;;;5008562;28;20214;-75
2023/10/28 13:52:08;;;;;;;14.53;7.13;;;;;;;;;;5007532;28;20190;-77
2023/10/28 13:54:34;;;;;;;9.67;4.40;;;;;;;;;;5007784;28;20233;-76
2023/10/28 13:57:00;;;;;;;7.00;3.17;;;;;;;;;;5008699;28;21382;-76
2023/10/28 13:59:27;;;;;;;10.60;3.50;;;;;;;;;;5007197;28;20230;-75
2023/10/28 14:01:53;;;;;;;7.97;3.00;;;;;;;;;;5009411;28;20183;-75
2023/10/28 14:04:19;;;;;;;10.43;2.83;;;;;;;;;;5023878;28;20270;-75
2023/10/28 14:06:45;;;;;;;6.00;2.70;;;;;;;;;;5008347;28;20188;-74
2023/10/28 14:09:15;;;;;;;7.43;2.77;;;;;;;;;;5008535;28;20189;-74
2023/10/28 14:11:42;;;;;;;8.53;2.77;;;;;;;;;;5008690;28;20190;-75
2023/10/28 14:14:11;;;;;;;9.10;3.20;;;;;;;;;;5008603;28;20187;-75
2023/10/28 14:16:37;;;;;;;6.87;3.23;;;;;;;;;;5008884;28;20194;-74
2023/10/28 14:19:06;;;;;;;11.23;3.77;;;;;;;;;;5006828;28;20260;-74
2023/10/28 14:21:33;;;;;;;12.97;3.77;;;;;;;;;;5009266;28;20298;-76
2023/10/28 14:24:00;;;;;;;9.83;3.50;;;;;;;;;;5007573;28;20594;-74
2023/10/28 14:26:27;;;;;;;9.60;3.97;;;;;;;;;;5008937;28;20179;-75
2023/10/28 14:28:53;;;;;;;7.00;2.90;;;;;;;;;;5023506;28;20597;-75
2023/10/28 14:31:19;;;;;;;8.70;3.03;;;;;;;;;;5009105;28;20187;-76
2023/10/28 14:33:46;;;;;;;9.40;4.00;;;;;;;;;;5008421;28;20231;-74
2023/10/28 14:36:12;;;;;;;9.40;3.10;;;;;;;;;;5006395;28;20180;-75
2023/10/28 14:38:42;;;;;;;9.07;3.80;;;;;;;;;;5008310;28;20221;-74
2023/10/28 14:41:09;;;;;;;11.33;4.60;;;;;;;;;;5007286;28;20195;-74
2023/10/28 14:43:35;;;;;;;9.93;3.73;;;;;;;;;;5008078;28;20185;-76